Terminal Aerodrome Forecast
Issued by NWS Miami, FL

Home | Current Version | Previous Version | Text Only | Print | Product List | Glossary On
Versions: 1 2 3 4 5 6 7 8 9 10 11 12 13 14 15 16 17 18 19 20 21 22 23 24 25
000
FTUS42 KMFL 161736
TAFFLL
TAF
KFLL 161736Z 1618/1718 11010KT P6SM VCTS FEW035 SCT050CB SCT150
     FM162030 12008KT P6SM SCT040 SCT250
     FM170100 12003KT P6SM FEW040 SCT250
     FM171500 12007KT P6SM SCT040 SCT250=

USA.gov is the U.S. government's official web portal to all federal, state and local government web resources and services.